sensor_id;sensor_type;location;lat;lon;timestamp;P1;durP1;ratioP1;P2;durP2;ratioP2
21800;SDS011;11062;51.164;16.924;2023-12-20T00:19:52;9.77;;;6.20;;
21800;SDS011;11062;51.164;16.924;2023-12-20T00:22:43;10.13;;;7.03;;
21800;SDS011;11062;51.164;16.924;2023-12-20T00:30:22;11.85;;;6.57;;
21800;SDS011;11062;51.164;16.924;2023-12-20T00:33:38;12.13;;;7.13;;
21800;SDS011;11062;51.164;16.924;2023-12-20T00:36:13;12.38;;;7.10;;
21800;SDS011;11062;51.164;16.924;2023-12-20T00:39:08;14.15;;;6.82;;
21800;SDS011;11062;51.164;16.924;2023-12-20T00:42:32;15.18;;;7.00;;
21800;SDS011;11062;51.164;16.924;2023-12-20T00:45:37;10.18;;;7.18;;
21800;SDS011;11062;51.164;16.924;2023-12-20T00:49:14;12.27;;;7.30;;
21800;SDS011;11062;51.164;16.924;2023-12-20T00:51:52;12.07;;;6.30;;
21800;SDS011;11062;51.164;16.924;2023-12-20T00:54:19;8.60;;;5.75;;
21800;SDS011;11062;51.164;16.924;2023-12-20T01:09:14;8.35;;;5.75;;
21800;SDS011;11062;51.164;16.924;2023-12-20T01:42:25;3.97;;;2.60;;
21800;SDS011;11062;51.164;16.924;2023-12-20T01:44:56;6.72;;;3.35;;
21800;SDS011;11062;51.164;16.924;2023-12-20T01:47:22;6.88;;;3.28;;
21800;SDS011;11062;51.164;16.924;2023-12-20T01:49:52;3.47;;;2.55;;
21800;SDS011;11062;51.164;16.924;2023-12-20T01:52:19;5.95;;;3.20;;
21800;SDS011;11062;51.164;16.924;2023-12-20T01:54:45;3.80;;;2.97;;
21800;SDS011;11062;51.164;16.924;2023-12-20T01:57:12;4.40;;;2.83;;
21800;SDS011;11062;51.164;16.924;2023-12-20T04:24:37;1.40;;;0.77;;
21800;SDS011;11062;51.164;16.924;2023-12-20T04:34:42;1.90;;;0.90;;
21800;SDS011;11062;51.164;16.924;2023-12-20T04:37:12;0.95;;;0.93;;
21800;SDS011;11062;51.164;16.924;2023-12-20T04:39:45;4.15;;;1.25;;
21800;SDS011;11062;51.164;16.924;2023-12-20T04:42:42;1.30;;;1.13;;
21800;SDS011;11062;51.164;16.924;2023-12-20T04:45:36;1.20;;;1.00;;
21800;SDS011;11062;51.164;16.924;2023-12-20T04:48:54;1.27;;;1.10;;
21800;SDS011;11062;51.164;16.924;2023-12-20T04:51:20;1.60;;;1.10;;
21800;SDS011;11062;51.164;16.924;2023-12-20T04:54:19;2.25;;;1.08;;
21800;SDS011;11062;51.164;16.924;2023-12-20T04:56:50;1.33;;;1.10;;
21800;SDS011;11062;51.164;16.924;2023-12-20T04:59:16;1.35;;;1.00;;
21800;SDS011;11062;51.164;16.924;2023-12-20T05:01:42;0.90;;;0.90;;
21800;SDS011;11062;51.164;16.924;2023-12-20T05:04:08;3.00;;;1.30;;
21800;SDS011;11062;51.164;16.924;2023-12-20T05:06:36;1.45;;;1.08;;
21800;SDS011;11062;51.164;16.924;2023-12-20T05:09:24;1.02;;;0.93;;
21800;SDS011;11062;51.164;16.924;2023-12-20T05:12:02;2.72;;;1.30;;
21800;SDS011;11062;51.164;16.924;2023-12-20T05:32:27;2.13;;;1.48;;
21800;SDS011;11062;51.164;16.924;2023-12-20T05:39:05;1.33;;;1.17;;
21800;SDS011;11062;51.164;16.924;2023-12-20T05:52:22;2.13;;;1.33;;
21800;SDS011;11062;51.164;16.924;2023-12-20T05:55:39;3.05;;;1.15;;
21800;SDS011;11062;51.164;16.924;2023-12-20T05:59:15;2.22;;;1.15;;
21800;SDS011;11062;51.164;16.924;2023-12-20T06:01:41;1.67;;;1.30;;
21800;SDS011;11062;51.164;16.924;2023-12-20T06:04:20;1.77;;;1.20;;
21800;SDS011;11062;51.164;16.924;2023-12-20T06:06:46;1.52;;;1.30;;
21800;SDS011;11062;51.164;16.924;2023-12-20T06:23:32;5.03;;;2.80;;
21800;SDS011;11062;51.164;16.924;2023-12-20T06:26:43;5.63;;;2.30;;
21800;SDS011;11062;51.164;16.924;2023-12-20T06:37:34;1.50;;;1.33;;
21800;SDS011;11062;51.164;16.924;2023-12-20T06:40:03;5.03;;;1.20;;
21800;SDS011;11062;51.164;16.924;2023-12-20T06:50:05;1.80;;;1.40;;
21800;SDS011;11062;51.164;16.924;2023-12-20T06:57:03;1.05;;;0.95;;
21800;SDS011;11062;51.164;16.924;2023-12-20T07:00:14;2.20;;;1.00;;
21800;SDS011;11062;51.164;16.924;2023-12-20T07:03:37;0.95;;;0.88;;
21800;SDS011;11062;51.164;16.924;2023-12-20T07:06:04;0.85;;;0.75;;
21800;SDS011;11062;51.164;16.924;2023-12-20T07:08:30;0.80;;;0.80;;
21800;SDS011;11062;51.164;16.924;2023-12-20T07:10:55;1.30;;;0.90;;
21800;SDS011;11062;51.164;16.924;2023-12-20T07:13:25;1.33;;;0.90;;
21800;SDS011;11062;51.164;16.924;2023-12-20T07:15:53;0.80;;;0.80;;
21800;SDS011;11062;51.164;16.924;2023-12-20T07:18:19;4.40;;;1.00;;
21800;SDS011;11062;51.164;16.924;2023-12-20T07:20:45;1.95;;;0.93;;
21800;SDS011;11062;51.164;16.924;2023-12-20T07:23:13;1.15;;;1.00;;
21800;SDS011;11062;51.164;16.924;2023-12-20T07:25:43;2.03;;;1.05;;
21800;SDS011;11062;51.164;16.924;2023-12-20T07:28:39;2.40;;;1.10;;
21800;SDS011;11062;51.164;16.924;2023-12-20T07:32:05;2.28;;;1.25;;
21800;SDS011;11062;51.164;16.924;2023-12-20T07:35:34;2.22;;;1.25;;
21800;SDS011;11062;51.164;16.924;2023-12-20T07:38:10;1.00;;;0.90;;
21800;SDS011;11062;51.164;16.924;2023-12-20T07:40:37;1.77;;;1.20;;
21800;SDS011;11062;51.164;16.924;2023-12-20T07:43:04;4.03;;;1.20;;
21800;SDS011;11062;51.164;16.924;2023-12-20T07:45:30;2.70;;;1.00;;
21800;SDS011;11062;51.164;16.924;2023-12-20T07:47:56;1.15;;;1.00;;
21800;SDS011;11062;51.164;16.924;2023-12-20T07:50:22;2.50;;;1.00;;
21800;SDS011;11062;51.164;16.924;2023-12-20T07:52:48;2.17;;;1.48;;
21800;SDS011;11062;51.164;16.924;2023-12-20T07:55:13;3.13;;;1.98;;
21800;SDS011;11062;51.164;16.924;2023-12-20T07:57:40;2.60;;;1.50;;
21800;SDS011;11062;51.164;16.924;2023-12-20T08:00:06;2.80;;;1.63;;
21800;SDS011;11062;51.164;16.924;2023-12-20T08:02:32;3.00;;;2.00;;
21800;SDS011;11062;51.164;16.924;2023-12-20T08:11:48;1.90;;;1.40;;
21800;SDS011;11062;51.164;16.924;2023-12-20T08:14:15;1.50;;;0.98;;
21800;SDS011;11062;51.164;16.924;2023-12-20T08:16:41;1.67;;;1.17;;
21800;SDS011;11062;51.164;16.924;2023-12-20T08:19:07;3.20;;;1.10;;
21800;SDS011;11062;51.164;16.924;2023-12-20T08:21:38;1.85;;;0.90;;
21800;SDS011;11062;51.164;16.924;2023-12-20T08:24:08;1.15;;;0.95;;
21800;SDS011;11062;51.164;16.924;2023-12-20T08:26:34;1.23;;;0.90;;
21800;SDS011;11062;51.164;16.924;2023-12-20T08:29:00;1.80;;;1.30;;
21800;SDS011;11062;51.164;16.924;2023-12-20T08:31:29;2.33;;;1.30;;
21800;SDS011;11062;51.164;16.924;2023-12-20T08:33:57;1.50;;;1.13;;
21800;SDS011;11062;51.164;16.924;2023-12-20T08:36:23;1.55;;;1.15;;
21800;SDS011;11062;51.164;16.924;2023-12-20T08:38:49;2.28;;;1.48;;
21800;SDS011;11062;51.164;16.924;2023-12-20T08:41:16;2.78;;;1.02;;
21800;SDS011;11062;51.164;16.924;2023-12-20T08:43:42;1.98;;;1.20;;
21800;SDS011;11062;51.164;16.924;2023-12-20T08:46:08;2.92;;;0.93;;
21800;SDS011;11062;51.164;16.924;2023-12-20T08:48:35;3.50;;;1.10;;
21800;SDS011;11062;51.164;16.924;2023-12-20T08:51:04;2.55;;;1.50;;
21800;SDS011;11062;51.164;16.924;2023-12-20T08:53:52;1.98;;;1.23;;
21800;SDS011;11062;51.164;16.924;2023-12-20T08:56:27;1.58;;;1.40;;
21800;SDS011;11062;51.164;16.924;2023-12-20T08:59:00;2.40;;;1.40;;
21800;SDS011;11062;51.164;16.924;2023-12-20T09:01:33;1.73;;;1.10;;
21800;SDS011;11062;51.164;16.924;2023-12-20T09:04:22;1.95;;;1.10;;
21800;SDS011;11062;51.164;16.924;2023-12-20T09:06:52;1.20;;;1.10;;
21800;SDS011;11062;51.164;16.924;2023-12-20T09:09:28;1.70;;;1.00;;
21800;SDS011;11062;51.164;16.924;2023-12-20T09:12:00;2.28;;;1.20;;
21800;SDS011;11062;51.164;16.924;2023-12-20T09:14:27;1.70;;;1.38;;
21800;SDS011;11062;51.164;16.924;2023-12-20T09:17:01;1.73;;;1.30;;
21800;SDS011;11062;51.164;16.924;2023-12-20T09:19:29;2.20;;;1.35;;
21800;SDS011;11062;51.164;16.924;2023-12-20T09:21:58;1.73;;;1.42;;
21800;SDS011;11062;51.164;16.924;2023-12-20T09:24:28;2.22;;;1.58;;
21800;SDS011;11062;51.164;16.924;2023-12-20T09:27:04;2.08;;;1.30;;
21800;SDS011;11062;51.164;16.924;2023-12-20T09:29:31;3.85;;;1.40;;
21800;SDS011;11062;51.164;16.924;2023-12-20T09:31:58;1.65;;;1.48;;
21800;SDS011;11062;51.164;16.924;2023-12-20T09:34:24;1.77;;;1.30;;
21800;SDS011;11062;51.164;16.924;2023-12-20T09:36:51;2.03;;;1.63;;
21800;SDS011;11062;51.164;16.924;2023-12-20T09:39:23;2.20;;;1.48;;
21800;SDS011;11062;51.164;16.924;2023-12-20T09:45:11;10.10;;;1.58;;
21800;SDS011;11062;51.164;16.924;2023-12-20T09:47:44;1.98;;;1.50;;
21800;SDS011;11062;51.164;16.924;2023-12-20T09:50:10;2.78;;;1.80;;
21800;SDS011;11062;51.164;16.924;2023-12-20T09:52:43;5.30;;;4.43;;
21800;SDS011;11062;51.164;16.924;2023-12-20T09:55:19;2.70;;;1.95;;
21800;SDS011;11062;51.164;16.924;2023-12-20T09:57:48;2.97;;;1.90;;
21800;SDS011;11062;51.164;16.924;2023-12-20T10:00:14;2.90;;;1.83;;
21800;SDS011;11062;51.164;16.924;2023-12-20T10:02:45;4.75;;;1.70;;
21800;SDS011;11062;51.164;16.924;2023-12-20T10:05:35;4.43;;;2.15;;
21800;SDS011;11062;51.164;16.924;2023-12-20T10:08:48;4.55;;;2.03;;
21800;SDS011;11062;51.164;16.924;2023-12-20T10:11:53;3.30;;;1.80;;
21800;SDS011;11062;51.164;16.924;2023-12-20T10:14:43;3.65;;;1.60;;
21800;SDS011;11062;51.164;16.924;2023-12-20T10:17:12;3.95;;;2.00;;
21800;SDS011;11062;51.164;16.924;2023-12-20T10:19:38;2.80;;;1.50;;
21800;SDS011;11062;51.164;16.924;2023-12-20T10:22:04;2.03;;;1.63;;
21800;SDS011;11062;51.164;16.924;2023-12-20T10:24:33;3.83;;;2.15;;
21800;SDS011;11062;51.164;16.924;2023-12-20T10:27:02;3.38;;;1.92;;
21800;SDS011;11062;51.164;16.924;2023-12-20T10:29:38;7.90;;;3.22;;
21800;SDS011;11062;51.164;16.924;2023-12-20T10:32:27;1.80;;;1.50;;
21800;SDS011;11062;51.164;16.924;2023-12-20T10:35:05;3.65;;;2.00;;
21800;SDS011;11062;51.164;16.924;2023-12-20T10:37:40;3.03;;;1.85;;
21800;SDS011;11062;51.164;16.924;2023-12-20T10:40:09;5.35;;;2.30;;
21800;SDS011;11062;51.164;16.924;2023-12-20T10:45:41;6.70;;;2.30;;
21800;SDS011;11062;51.164;16.924;2023-12-20T10:48:10;2.50;;;1.48;;
21800;SDS011;11062;51.164;16.924;2023-12-20T10:50:39;6.22;;;1.70;;
21800;SDS011;11062;51.164;16.924;2023-12-20T10:54:15;5.35;;;1.90;;
21800;SDS011;11062;51.164;16.924;2023-12-20T11:14:15;2.08;;;1.30;;
21800;SDS011;11062;51.164;16.924;2023-12-20T11:27:01;6.85;;;1.70;;
21800;SDS011;11062;51.164;16.924;2023-12-20T11:30:24;6.05;;;1.80;;
21800;SDS011;11062;51.164;16.924;2023-12-20T11:33:59;3.17;;;1.63;;
21800;SDS011;11062;51.164;16.924;2023-12-20T11:37:11;5.38;;;1.55;;
21800;SDS011;11062;51.164;16.924;2023-12-20T11:40:57;6.03;;;1.83;;
21800;SDS011;11062;51.164;16.924;2023-12-20T11:47:53;2.30;;;1.25;;
21800;SDS011;11062;51.164;16.924;2023-12-20T12:01:48;7.03;;;1.85;;
21800;SDS011;11062;51.164;16.924;2023-12-20T12:04:31;1.98;;;1.10;;
21800;SDS011;11062;51.164;16.924;2023-12-20T12:07:00;17.23;;;2.45;;
21800;SDS011;11062;51.164;16.924;2023-12-20T12:09:26;7.47;;;2.70;;
21800;SDS011;11062;51.164;16.924;2023-12-20T12:11:55;3.83;;;2.22;;
21800;SDS011;11062;51.164;16.924;2023-12-20T12:14:21;3.63;;;1.83;;
21800;SDS011;11062;51.164;16.924;2023-12-20T12:16:49;8.57;;;3.40;;
21800;SDS011;11062;51.164;16.924;2023-12-20T12:19:25;4.28;;;2.35;;
21800;SDS011;11062;51.164;16.924;2023-12-20T12:22:03;4.05;;;1.70;;
21800;SDS011;11062;51.164;16.924;2023-12-20T12:24:39;4.63;;;1.38;;
21800;SDS011;11062;51.164;16.924;2023-12-20T12:27:06;4.13;;;1.80;;
21800;SDS011;11062;51.164;16.924;2023-12-20T12:29:35;3.42;;;1.75;;
21800;SDS011;11062;51.164;16.924;2023-12-20T12:32:05;3.35;;;1.85;;
21800;SDS011;11062;51.164;16.924;2023-12-20T12:34:37;4.35;;;1.63;;
21800;SDS011;11062;51.164;16.924;2023-12-20T12:37:03;4.10;;;2.08;;
21800;SDS011;11062;51.164;16.924;2023-12-20T12:39:29;4.30;;;1.88;;
21800;SDS011;11062;51.164;16.924;2023-12-20T12:41:57;5.22;;;2.17;;
21800;SDS011;11062;51.164;16.924;2023-12-20T12:44:23;2.03;;;1.40;;
21800;SDS011;11062;51.164;16.924;2023-12-20T12:46:52;3.75;;;1.77;;
21800;SDS011;11062;51.164;16.924;2023-12-20T12:49:22;4.50;;;1.50;;
21800;SDS011;11062;51.164;16.924;2023-12-20T12:51:50;2.67;;;1.50;;
21800;SDS011;11062;51.164;16.924;2023-12-20T12:54:16;5.35;;;2.38;;
21800;SDS011;11062;51.164;16.924;2023-12-20T12:56:45;4.72;;;2.20;;
21800;SDS011;11062;51.164;16.924;2023-12-20T12:59:12;5.88;;;2.13;;
21800;SDS011;11062;51.164;16.924;2023-12-20T13:01:39;4.07;;;2.47;;
21800;SDS011;11062;51.164;16.924;2023-12-20T13:04:05;6.63;;;2.45;;
21800;SDS011;11062;51.164;16.924;2023-12-20T13:06:35;7.65;;;2.78;;
21800;SDS011;11062;51.164;16.924;2023-12-20T13:09:06;5.78;;;1.98;;
21800;SDS011;11062;51.164;16.924;2023-12-20T13:11:34;5.20;;;2.13;;
21800;SDS011;11062;51.164;16.924;2023-12-20T13:14:00;4.82;;;1.83;;
21800;SDS011;11062;51.164;16.924;2023-12-20T13:16:26;5.63;;;1.90;;
21800;SDS011;11062;51.164;16.924;2023-12-20T13:18:54;2.17;;;1.27;;
21800;SDS011;11062;51.164;16.924;2023-12-20T13:21:24;5.80;;;1.98;;
21800;SDS011;11062;51.164;16.924;2023-12-20T13:23:50;4.50;;;1.60;;
21800;SDS011;11062;51.164;16.924;2023-12-20T13:26:20;4.82;;;1.33;;
21800;SDS011;11062;51.164;16.924;2023-12-20T13:28:46;6.50;;;1.90;;
21800;SDS011;11062;51.164;16.924;2023-12-20T13:31:14;5.57;;;1.88;;
21800;SDS011;11062;51.164;16.924;2023-12-20T13:33:43;4.85;;;1.63;;
21800;SDS011;11062;51.164;16.924;2023-12-20T13:36:15;4.28;;;2.00;;
21800;SDS011;11062;51.164;16.924;2023-12-20T13:38:46;4.07;;;1.60;;
21800;SDS011;11062;51.164;16.924;2023-12-20T13:41:15;6.93;;;1.85;;
21800;SDS011;11062;51.164;16.924;2023-12-20T13:43:41;4.05;;;1.60;;
21800;SDS011;11062;51.164;16.924;2023-12-20T13:46:10;3.92;;;1.30;;
21800;SDS011;11062;51.164;16.924;2023-12-20T13:48:39;6.63;;;2.30;;
21800;SDS011;11062;51.164;16.924;2023-12-20T13:51:07;5.03;;;2.03;;
21800;SDS011;11062;51.164;16.924;2023-12-20T13:53:33;3.67;;;1.90;;
21800;SDS011;11062;51.164;16.924;2023-12-20T13:56:03;4.38;;;1.67;;
21800;SDS011;11062;51.164;16.924;2023-12-20T13:58:29;4.95;;;1.60;;
21800;SDS011;11062;51.164;16.924;2023-12-20T14:00:56;3.67;;;1.40;;
21800;SDS011;11062;51.164;16.924;2023-12-20T14:03:24;2.05;;;1.02;;
21800;SDS011;11062;51.164;16.924;2023-12-20T14:05:53;6.25;;;1.60;;
21800;SDS011;11062;51.164;16.924;2023-12-20T14:08:22;8.35;;;1.63;;
21800;SDS011;11062;51.164;16.924;2023-12-20T14:10:49;7.63;;;2.17;;
21800;SDS011;11062;51.164;16.924;2023-12-20T14:13:18;7.95;;;2.33;;
21800;SDS011;11062;51.164;16.924;2023-12-20T14:15:44;5.88;;;1.92;;
21800;SDS011;11062;51.164;16.924;2023-12-20T14:18:14;7.03;;;1.88;;
21800;SDS011;11062;51.164;16.924;2023-12-20T14:20:40;5.03;;;2.13;;
21800;SDS011;11062;51.164;16.924;2023-12-20T14:23:08;6.18;;;2.30;;
21800;SDS011;11062;51.164;16.924;2023-12-20T14:25:37;7.47;;;2.53;;
21800;SDS011;11062;51.164;16.924;2023-12-20T14:28:03;6.28;;;2.65;;
21800;SDS011;11062;51.164;16.924;2023-12-20T14:30:29;6.03;;;2.40;;
21800;SDS011;11062;51.164;16.924;2023-12-20T14:32:58;6.88;;;2.38;;
21800;SDS011;11062;51.164;16.924;2023-12-20T14:35:24;9.63;;;3.00;;
21800;SDS011;11062;51.164;16.924;2023-12-20T14:37:50;4.93;;;2.40;;
21800;SDS011;11062;51.164;16.924;2023-12-20T14:40:19;5.70;;;2.05;;
21800;SDS011;11062;51.164;16.924;2023-12-20T14:42:48;6.22;;;2.83;;
21800;SDS011;11062;51.164;16.924;2023-12-20T14:45:20;7.15;;;3.10;;
21800;SDS011;11062;51.164;16.924;2023-12-20T14:47:49;5.18;;;2.65;;
21800;SDS011;11062;51.164;16.924;2023-12-20T14:50:14;5.30;;;2.80;;
21800;SDS011;11062;51.164;16.924;2023-12-20T14:52:44;3.72;;;2.22;;
21800;SDS011;11062;51.164;16.924;2023-12-20T14:55:13;4.30;;;2.15;;
21800;SDS011;11062;51.164;16.924;2023-12-20T14:57:46;4.35;;;2.13;;
21800;SDS011;11062;51.164;16.924;2023-12-20T15:00:15;7.00;;;2.10;;
21800;SDS011;11062;51.164;16.924;2023-12-20T15:02:45;9.77;;;2.83;;
21800;SDS011;11062;51.164;16.924;2023-12-20T15:05:11;6.20;;;2.22;;
21800;SDS011;11062;51.164;16.924;2023-12-20T15:07:37;7.85;;;2.55;;
21800;SDS011;11062;51.164;16.924;2023-12-20T15:10:03;6.15;;;2.83;;
21800;SDS011;11062;51.164;16.924;2023-12-20T15:12:29;10.77;;;4.13;;
21800;SDS011;11062;51.164;16.924;2023-12-20T15:14:55;9.77;;;4.20;;
21800;SDS011;11062;51.164;16.924;2023-12-20T15:17:21;12.52;;;4.55;;
21800;SDS011;11062;51.164;16.924;2023-12-20T15:19:47;8.85;;;3.38;;
21800;SDS011;11062;51.164;16.924;2023-12-20T15:22:13;8.60;;;3.88;;
21800;SDS011;11062;51.164;16.924;2023-12-20T15:24:42;8.32;;;3.60;;
21800;SDS011;11062;51.164;16.924;2023-12-20T15:27:11;13.38;;;4.57;;
21800;SDS011;11062;51.164;16.924;2023-12-20T15:29:37;10.25;;;4.57;;
21800;SDS011;11062;51.164;16.924;2023-12-20T21:13:11;6.57;;;2.33;;
21800;SDS011;11062;51.164;16.924;2023-12-20T21:15:37;4.35;;;2.25;;
21800;SDS011;11062;51.164;16.924;2023-12-20T21:18:03;8.63;;;3.13;;
21800;SDS011;11062;51.164;16.924;2023-12-20T21:20:30;4.85;;;2.75;;
21800;SDS011;11062;51.164;16.924;2023-12-20T21:22:59;6.60;;;2.40;;
21800;SDS011;11062;51.164;16.924;2023-12-20T21:25:28;7.50;;;2.42;;
21800;SDS011;11062;51.164;16.924;2023-12-20T21:27:57;5.50;;;2.75;;
21800;SDS011;11062;51.164;16.924;2023-12-20T21:30:24;6.00;;;2.53;;
21800;SDS011;11062;51.164;16.924;2023-12-20T21:32:58;8.52;;;2.38;;
21800;SDS011;11062;51.164;16.924;2023-12-20T21:35:28;6.28;;;2.38;;
21800;SDS011;11062;51.164;16.924;2023-12-20T21:38:03;10.02;;;2.53;;
21800;SDS011;11062;51.164;16.924;2023-12-20T21:40:29;5.25;;;1.95;;
21800;SDS011;11062;51.164;16.924;2023-12-20T21:42:55;4.15;;;1.80;;
21800;SDS011;11062;51.164;16.924;2023-12-20T21:45:37;6.63;;;2.60;;
21800;SDS011;11062;51.164;16.924;2023-12-20T21:48:09;3.55;;;2.03;;
21800;SDS011;11062;51.164;16.924;2023-12-20T21:56:07;7.53;;;2.53;;
21800;SDS011;11062;51.164;16.924;2023-12-20T23:57:52;2.42;;;0.80;;
